createdAt,value
2019-01-13T00:01:19.975Z,14.00
2019-01-13T00:06:38.658Z,14.73
2019-01-13T00:11:57.219Z,14.50
2019-01-13T00:17:15.841Z,13.43
2019-01-13T00:22:35.731Z,14.57
2019-01-13T00:27:54.377Z,14.00
2019-01-13T00:33:12.943Z,14.68
2019-01-13T00:38:31.567Z,15.63
2019-01-13T00:43:50.460Z,15.57
2019-01-13T00:49:09.129Z,15.07
2019-01-13T00:54:27.834Z,14.60
2019-01-13T00:59:46.937Z,14.93
2019-01-13T01:05:08.595Z,16.12
2019-01-13T01:10:27.254Z,14.90
2019-01-13T01:15:45.893Z,13.63
2019-01-13T01:21:04.617Z,17.00
2019-01-13T01:26:24.784Z,17.57
2019-01-13T01:31:43.425Z,18.70
2019-01-13T01:37:01.988Z,18.23
2019-01-13T01:42:20.543Z,20.23
2019-01-13T01:47:39.195Z,23.47
2019-01-13T01:52:58.052Z,23.77
2019-01-13T01:58:16.697Z,21.87
2019-01-13T02:03:35.455Z,21.37
2019-01-13T02:08:55.380Z,22.00
2019-01-13T02:14:14.055Z,21.77
2019-01-13T02:19:32.733Z,22.73
2019-01-13T02:24:51.287Z,23.30
2019-01-13T02:30:13.132Z,23.97
2019-01-13T02:35:31.796Z,22.03
2019-01-13T02:40:50.459Z,21.13
2019-01-13T02:46:09.172Z,17.53
2019-01-13T02:51:28.454Z,17.67
2019-01-13T02:56:47.180Z,19.40
2019-01-13T03:02:06.686Z,18.40
2019-01-13T03:07:27.026Z,17.40
2019-01-13T03:12:46.174Z,16.40
2019-01-13T03:18:04.915Z,14.60
2019-01-13T03:23:23.744Z,12.05
2019-01-13T03:28:42.388Z,10.43
2019-01-13T03:34:01.042Z,8.77
2019-01-13T03:39:19.793Z,8.17
2019-01-13T03:44:38.506Z,7.53
2019-01-13T03:49:57.165Z,7.73
2019-01-13T03:55:17.033Z,6.93
2019-01-13T04:00:35.735Z,6.90
2019-01-13T04:05:54.434Z,7.77
2019-01-13T04:11:13.008Z,9.40
2019-01-13T04:16:31.701Z,11.33
2019-01-13T04:21:50.326Z,12.70
2019-01-13T04:27:09.030Z,13.57
2019-01-13T04:32:27.589Z,13.93
2019-01-13T04:37:46.203Z,12.37
2019-01-13T04:43:04.941Z,11.87
2019-01-13T04:48:23.832Z,14.27
2019-01-13T04:53:42.442Z,15.47
2019-01-13T04:59:01.600Z,16.02
2019-01-13T05:04:20.233Z,16.10
2019-01-13T05:09:38.835Z,14.93
2019-01-13T05:14:57.433Z,15.10
2019-01-13T05:20:21.163Z,15.20
2019-01-13T05:25:39.737Z,14.60
2019-01-13T05:30:58.387Z,15.47
2019-01-13T05:36:17.031Z,16.27
2019-01-13T05:41:37.496Z,16.50
2019-01-13T05:46:57.791Z,18.73
2019-01-13T05:52:18.670Z,16.43
2019-01-13T05:57:37.437Z,15.03
2019-01-13T06:02:58.202Z,13.87
2019-01-13T06:08:16.958Z,13.60
2019-01-13T06:13:37.039Z,12.17
2019-01-13T06:18:55.676Z,10.40
2019-01-13T06:24:15.688Z,8.60
2019-01-13T06:29:34.505Z,8.10
2019-01-13T06:34:53.672Z,6.50
2019-01-13T06:40:15.044Z,5.95
2019-01-13T06:45:34.101Z,4.93
2019-01-13T06:50:52.775Z,4.03
2019-01-13T06:56:11.509Z,3.60
2019-01-13T07:01:30.247Z,3.83
2019-01-13T07:06:48.890Z,4.22
2019-01-13T07:12:07.428Z,3.47
2019-01-13T07:17:27.333Z,3.20
2019-01-13T07:22:46.163Z,3.40
2019-01-13T07:28:04.870Z,3.37
2019-01-13T07:33:24.605Z,3.40
2019-01-13T07:38:43.250Z,3.73
2019-01-13T07:44:03.521Z,4.37
2019-01-13T07:49:22.141Z,4.97
2019-01-13T07:54:40.783Z,4.67
2019-01-13T07:59:59.422Z,4.63
2019-01-13T08:05:18.276Z,4.40
2019-01-13T08:10:38.483Z,5.00
2019-01-13T08:15:57.116Z,4.87
2019-01-13T08:21:15.760Z,4.63
2019-01-13T08:26:34.519Z,5.47
2019-01-13T08:31:53.272Z,5.63
2019-01-13T08:37:11.940Z,5.70
2019-01-13T08:42:30.612Z,6.63
2019-01-13T08:47:49.273Z,6.87
2019-01-13T08:53:07.968Z,8.28
2019-01-13T08:58:26.660Z,7.90
2019-01-13T09:03:45.325Z,8.87
2019-01-13T09:09:07.293Z,9.70
2019-01-13T09:14:26.011Z,10.17
2019-01-13T09:19:44.666Z,10.93
2019-01-13T09:25:03.300Z,10.60
2019-01-13T09:30:24.339Z,12.03
2019-01-13T09:35:43.235Z,12.73
2019-01-13T09:41:01.857Z,12.63
2019-01-13T09:46:20.549Z,13.63
2019-01-13T09:51:39.841Z,14.83
2019-01-13T09:56:58.534Z,17.33
2019-01-13T10:02:17.316Z,18.17
2019-01-13T10:07:36.148Z,19.60
2019-01-13T10:12:54.927Z,19.23
2019-01-13T10:18:13.591Z,21.10
2019-01-13T10:23:32.319Z,20.67
2019-01-13T10:28:51.035Z,23.32
2019-01-13T10:34:10.306Z,21.30
2019-01-13T10:39:29.175Z,23.27
2019-01-13T10:44:47.735Z,20.30
2019-01-13T10:50:09.271Z,18.60
2019-01-13T10:55:28.220Z,20.00
2019-01-13T11:00:47.170Z,17.87
2019-01-13T11:06:05.785Z,18.53
2019-01-13T11:11:24.407Z,16.83
2019-01-13T11:16:43.128Z,16.00
2019-01-13T11:22:01.822Z,14.23
2019-01-13T11:27:20.568Z,13.43
2019-01-13T11:32:39.165Z,14.10
2019-01-13T11:38:01.923Z,11.97
2019-01-13T11:43:20.703Z,12.60
2019-01-13T11:48:39.260Z,10.90
2019-01-13T11:53:57.885Z,10.03
2019-01-13T11:59:16.782Z,8.77
2019-01-13T12:04:35.432Z,8.97
2019-01-13T12:09:54.008Z,8.47
2019-01-13T12:15:14.772Z,8.95
2019-01-13T12:20:33.720Z,9.97
2019-01-13T12:25:53.026Z,9.17
2019-01-13T12:31:11.671Z,8.63
2019-01-13T12:36:30.291Z,8.27
2019-01-13T12:41:48.985Z,8.70
2019-01-13T12:47:07.695Z,8.43
2019-01-13T12:52:26.236Z,7.17
2019-01-13T12:57:45.050Z,7.65
2019-01-13T13:03:03.796Z,8.37
2019-01-13T13:08:22.414Z,6.80
2019-01-13T13:13:41.114Z,7.50
2019-01-13T13:18:59.963Z,7.93
2019-01-13T13:24:18.552Z,6.57
2019-01-13T13:29:37.181Z,7.93
2019-01-13T13:34:55.920Z,6.60
2019-01-13T13:40:17.355Z,6.92
2019-01-13T13:45:36.003Z,6.43
2019-01-13T13:50:54.561Z,7.33
2019-01-13T13:56:13.117Z,8.63
2019-01-13T14:01:31.680Z,8.60
2019-01-13T14:06:50.232Z,8.00
2019-01-13T14:12:08.858Z,8.50
2019-01-13T14:17:27.721Z,8.70
2019-01-13T14:22:46.343Z,8.60
2019-01-13T14:28:05.287Z,8.03
2019-01-13T14:33:24.062Z,9.67
2019-01-13T14:38:42.942Z,10.17
2019-01-13T14:44:01.639Z,9.20
2019-01-13T14:49:20.290Z,9.03
2019-01-13T14:54:38.815Z,7.60
2019-01-13T14:59:58.223Z,7.63
2019-01-13T15:05:16.929Z,7.20
2019-01-13T15:10:35.860Z,5.50
2019-01-13T15:15:54.451Z,6.33
2019-01-13T15:21:13.009Z,5.83
2019-01-13T15:26:32.130Z,5.37
2019-01-13T15:31:50.748Z,7.22
2019-01-13T15:37:09.493Z,7.30
2019-01-13T15:42:28.186Z,9.00
2019-01-13T15:47:48.043Z,10.33
2019-01-13T15:53:06.682Z,9.87
2019-01-13T15:58:25.248Z,11.77
2019-01-13T16:03:46.272Z,11.50
2019-01-13T16:09:08.436Z,11.80
2019-01-13T16:14:27.063Z,12.00
2019-01-13T16:19:45.720Z,12.03
2019-01-13T16:25:05.301Z,12.07
2019-01-13T16:30:29.119Z,11.83
2019-01-13T16:35:50.018Z,11.43
2019-01-13T16:41:10.721Z,11.63
2019-01-13T16:46:29.217Z,10.47
2019-01-13T16:57:43.218Z,9.40
2019-01-13T17:03:01.899Z,10.33
2019-01-13T17:14:15.992Z,10.10
2019-01-13T17:19:35.486Z,9.30
2019-01-13T17:24:54.216Z,9.23
2019-01-13T17:30:15.980Z,9.90
2019-01-13T17:35:34.683Z,9.70
2019-01-13T17:40:53.455Z,8.93
2019-01-13T17:46:12.076Z,8.80
2019-01-13T17:51:32.354Z,6.33
2019-01-13T17:56:52.287Z,7.13
2019-01-13T18:02:11.086Z,6.67
2019-01-13T18:07:29.742Z,5.40
2019-01-13T18:12:48.475Z,4.90
2019-01-13T18:18:07.106Z,5.60
2019-01-13T18:23:25.787Z,1.93
2019-01-13T18:28:44.425Z,1.83
2019-01-13T18:34:02.985Z,1.60
2019-01-13T18:39:21.606Z,1.50
2019-01-13T18:44:40.313Z,1.77
2019-01-13T18:50:00.531Z,1.35
2019-01-13T18:55:19.298Z,2.03
2019-01-13T19:00:37.971Z,1.80
2019-01-13T19:05:58.340Z,2.47
2019-01-13T19:11:18.892Z,2.07
2019-01-13T19:16:39.917Z,2.10
2019-01-13T19:21:58.696Z,2.07
2019-01-13T19:27:17.391Z,2.00
2019-01-13T19:32:36.189Z,2.52
2019-01-13T19:37:54.867Z,1.97
2019-01-13T19:43:13.940Z,2.30
2019-01-13T19:48:32.585Z,2.23
2019-01-13T19:53:51.576Z,2.73
2019-01-13T19:59:10.252Z,3.77
2019-01-13T20:04:28.878Z,3.87
2019-01-13T20:09:47.498Z,3.23
2019-01-13T20:15:09.035Z,3.90
2019-01-13T20:20:27.681Z,3.17
2019-01-13T20:25:46.246Z,3.10
2019-01-13T20:31:04.978Z,3.50
2019-01-13T20:36:23.778Z,4.10
2019-01-13T20:41:42.244Z,4.87
2019-01-13T20:47:00.984Z,4.23
2019-01-13T20:52:19.559Z,3.83
2019-01-13T20:57:38.166Z,4.07
2019-01-13T21:02:57.108Z,4.30
2019-01-13T21:08:18.988Z,3.60
2019-01-13T21:13:40.097Z,2.10
2019-01-13T21:18:58.789Z,2.40
2019-01-13T21:24:17.383Z,1.67
2019-01-13T21:29:36.025Z,2.10
2019-01-13T21:34:54.610Z,1.97
2019-01-13T21:40:53.184Z,2.13
2019-01-13T21:46:11.715Z,1.80
2019-01-13T21:51:30.183Z,2.00
2019-01-13T21:56:48.639Z,1.95
2019-01-13T22:02:07.256Z,2.27
2019-01-13T22:07:25.868Z,1.67
2019-01-13T22:12:44.480Z,1.73
2019-01-13T22:18:03.070Z,2.10
2019-01-13T22:23:21.797Z,2.10
2019-01-13T22:28:40.326Z,3.03
2019-01-13T22:33:58.803Z,3.83
2019-01-13T22:39:17.274Z,3.63
2019-01-13T22:44:35.869Z,3.60
2019-01-13T22:49:54.371Z,3.43
2019-01-13T22:55:12.982Z,3.60
2019-01-13T23:01:11.365Z,3.40
2019-01-13T23:06:29.841Z,4.03
2019-01-13T23:11:48.455Z,3.37
2019-01-13T23:17:07.260Z,3.20
2019-01-13T23:22:25.876Z,3.33
2019-01-13T23:27:44.398Z,3.03
2019-01-13T23:38:33.441Z,2.87
2019-01-13T23:43:51.990Z,3.20
2019-01-13T23:54:42.600Z,2.23
